createdAt,value
2022-08-25T00:00:47.277Z,35.88
2022-08-25T00:03:18.410Z,35.62
2022-08-25T00:05:53.184Z,35.84
2022-08-25T00:08:21.963Z,35.25
2022-08-25T00:11:03.571Z,35.16
2022-08-25T00:13:32.574Z,35.27
2022-08-25T00:16:04.181Z,35.38
2022-08-25T00:18:33.432Z,35.14
2022-08-25T00:21:00.457Z,35.83
2022-08-25T00:23:30.148Z,35.24
2022-08-25T00:26:04.002Z,35.86
2022-08-25T00:28:33.835Z,35.37
2022-08-25T00:31:01.486Z,35.71
2022-08-25T00:33:31.932Z,35.89
2022-08-25T00:36:01.618Z,35.29
2022-08-25T00:38:31.502Z,35.85
2022-08-25T00:41:07.847Z,35.50
2022-08-25T00:43:43.473Z,35.67
2022-08-25T00:46:11.979Z,35.65
2022-08-25T00:48:52.961Z,35.21
2022-08-25T00:51:33.122Z,35.19
2022-08-25T00:54:04.184Z,35.25
2022-08-25T00:56:33.012Z,35.04
2022-08-25T00:59:06.082Z,35.40
2022-08-25T01:01:36.409Z,35.29
2022-08-25T01:04:06.277Z,35.02
2022-08-25T01:06:41.607Z,35.62
2022-08-25T01:09:18.732Z,35.63
2022-08-25T01:11:59.569Z,35.71
2022-08-25T01:14:47.632Z,35.74
2022-08-25T01:17:20.440Z,35.21
2022-08-25T01:20:29.354Z,35.80
2022-08-25T01:23:00.522Z,35.91
2022-08-25T01:25:50.043Z,35.68
2022-08-25T01:28:19.807Z,35.83
2022-08-25T01:30:59.563Z,35.37
2022-08-25T01:33:32.515Z,35.21
2022-08-25T01:36:01.778Z,35.32
2022-08-25T01:38:28.977Z,35.89
2022-08-25T01:41:01.849Z,35.46
2022-08-25T01:43:51.747Z,35.45
2022-08-25T01:46:24.406Z,35.61
2022-08-25T01:48:54.481Z,35.39
2022-08-25T01:51:33.790Z,35.40
2022-08-25T01:54:05.478Z,35.93
2022-08-25T01:56:37.059Z,35.92
2022-08-25T01:59:07.083Z,35.43
2022-08-25T02:01:38.609Z,36.25
2022-08-25T02:04:09.081Z,35.26
2022-08-25T02:06:45.605Z,36.03
2022-08-25T02:09:19.060Z,36.08
2022-08-25T02:11:57.703Z,35.32
2022-08-25T02:14:26.616Z,35.93
2022-08-25T02:17:00.119Z,35.33
2022-08-25T02:19:42.695Z,35.44
2022-08-25T02:22:21.151Z,35.68
2022-08-25T02:24:52.510Z,35.90
2022-08-25T02:27:27.767Z,36.33
2022-08-25T02:29:57.647Z,36.05
2022-08-25T02:32:29.317Z,35.65
2022-08-25T02:35:02.615Z,36.34
2022-08-25T02:37:36.984Z,36.35
2022-08-25T02:40:20.603Z,36.13
2022-08-25T02:43:14.725Z,35.74
2022-08-25T02:45:44.046Z,35.52
2022-08-25T02:48:15.373Z,36.12
2022-08-25T02:50:54.920Z,36.16
2022-08-25T02:53:26.210Z,35.70
2022-08-25T02:55:57.110Z,36.45
2022-08-25T02:58:24.217Z,35.73
2022-08-25T03:00:56.453Z,35.94
2022-08-25T03:03:29.642Z,36.16
2022-08-25T03:05:59.753Z,36.40
2022-08-25T03:11:13.108Z,35.92
2022-08-25T03:13:44.983Z,36.31
2022-08-25T03:16:21.880Z,36.49
2022-08-25T03:21:39.482Z,35.93
2022-08-25T03:24:13.003Z,36.12
2022-08-25T03:26:56.050Z,36.44
2022-08-25T03:29:35.503Z,36.05
2022-08-25T03:32:06.926Z,36.69
2022-08-25T03:34:38.744Z,36.32
2022-08-25T03:37:12.601Z,35.69
2022-08-25T03:39:44.638Z,36.51
2022-08-25T03:42:16.535Z,36.46
2022-08-25T03:44:48.185Z,36.17
2022-08-25T03:47:23.273Z,36.03
2022-08-25T03:49:50.413Z,35.99
2022-08-25T03:52:40.199Z,36.65
2022-08-25T03:55:18.742Z,36.18
2022-08-25T03:57:48.806Z,36.52
2022-08-25T04:00:32.095Z,36.11
2022-08-25T04:03:02.261Z,36.22
2022-08-25T04:05:29.442Z,36.02
2022-08-25T04:08:00.189Z,36.86
2022-08-25T04:10:27.822Z,36.76
2022-08-25T04:13:13.169Z,36.99
2022-08-25T04:15:46.340Z,36.22
2022-08-25T04:18:15.470Z,36.60
2022-08-25T04:20:59.387Z,36.81
2022-08-25T04:23:29.845Z,36.56
2022-08-25T04:25:58.492Z,36.79
2022-08-25T04:28:25.665Z,37.00
2022-08-25T04:30:52.624Z,36.38
2022-08-25T04:33:19.700Z,36.83
2022-08-25T04:35:50.340Z,36.91
2022-08-25T04:38:17.504Z,36.37
2022-08-25T04:40:44.450Z,36.93
2022-08-25T04:43:11.340Z,36.38
2022-08-25T04:45:40.595Z,36.37
2022-08-25T04:48:07.690Z,36.25
2022-08-25T04:50:39.253Z,36.61
2022-08-25T04:53:06.153Z,36.78
2022-08-25T04:55:33.075Z,36.79
2022-08-25T04:58:00.133Z,37.32
2022-08-25T05:00:27.135Z,37.10
2022-08-25T05:02:55.508Z,36.50
2022-08-25T05:05:22.434Z,36.81
2022-08-25T05:07:49.514Z,36.71
2022-08-25T05:10:16.501Z,36.72
2022-08-25T05:12:43.874Z,37.42
2022-08-25T05:15:29.770Z,37.25
2022-08-25T05:17:57.094Z,37.09
2022-08-25T05:20:24.757Z,37.17
2022-08-25T05:22:51.801Z,37.27
2022-08-25T05:25:18.961Z,36.56
2022-08-25T05:27:45.929Z,37.13
2022-08-25T05:30:14.097Z,37.14
2022-08-25T05:32:41.116Z,37.48
2022-08-25T05:35:08.834Z,37.02
2022-08-25T05:37:36.005Z,36.95
2022-08-25T05:40:03.656Z,37.13
2022-08-25T05:42:30.577Z,37.56
2022-08-25T05:44:57.481Z,37.13
2022-08-25T05:47:24.412Z,36.98
2022-08-25T05:49:51.321Z,37.41
2022-08-25T05:52:18.324Z,37.42
2022-08-25T05:54:47.474Z,37.57
2022-08-25T05:57:14.635Z,37.54
2022-08-25T05:59:41.576Z,37.02
2022-08-25T06:02:26.990Z,37.46
2022-08-25T06:04:53.900Z,37.02
2022-08-25T06:07:21.130Z,37.80
2022-08-25T06:09:49.963Z,37.62
2022-08-25T06:12:18.038Z,38.06
2022-08-25T06:14:45.195Z,37.00
2022-08-25T06:17:12.233Z,37.87
2022-08-25T06:19:41.249Z,37.32
2022-08-25T06:22:08.332Z,37.82
2022-08-25T06:24:35.341Z,37.33
2022-08-25T06:27:02.272Z,37.43
2022-08-25T06:29:29.236Z,37.79
2022-08-25T06:31:56.385Z,37.67
2022-08-25T06:34:23.937Z,37.84
2022-08-25T06:36:51.556Z,38.06
2022-08-25T06:39:18.556Z,37.87
2022-08-25T06:41:45.526Z,37.78
2022-08-25T06:44:12.447Z,37.72
2022-08-25T06:46:39.466Z,37.37
2022-08-25T06:49:06.793Z,37.31
2022-08-25T06:51:36.136Z,37.48
2022-08-25T06:54:05.259Z,37.29
2022-08-25T06:56:34.112Z,37.64
2022-08-25T06:59:02.134Z,37.23
2022-08-25T07:01:30.009Z,37.71
2022-08-25T07:04:02.246Z,37.34
2022-08-25T07:06:31.799Z,37.30
2022-08-25T07:08:59.337Z,37.01
2022-08-25T07:11:26.556Z,37.77
2022-08-25T07:13:53.908Z,37.01
2022-08-25T07:16:21.774Z,37.64
2022-08-25T07:18:49.593Z,37.42
2022-08-25T07:21:18.105Z,37.10
2022-08-25T07:23:47.693Z,37.08
2022-08-25T07:26:36.647Z,37.63
2022-08-25T07:29:10.665Z,36.97
2022-08-25T07:31:37.949Z,37.12
2022-08-25T07:34:25.534Z,37.46
2022-08-25T07:36:53.854Z,37.66
2022-08-25T07:39:22.175Z,37.67
2022-08-25T07:41:53.706Z,37.10
2022-08-25T07:44:22.725Z,36.80
2022-08-25T07:46:51.205Z,37.82
2022-08-25T07:49:23.364Z,37.50
2022-08-25T07:52:05.172Z,37.37
2022-08-25T07:54:37.648Z,36.98
2022-08-25T07:57:07.398Z,37.17
2022-08-25T07:59:40.082Z,37.48
2022-08-25T08:02:18.937Z,37.17
2022-08-25T08:04:49.509Z,37.20
2022-08-25T08:07:19.611Z,36.73
2022-08-25T08:09:53.128Z,37.10
2022-08-25T08:12:28.372Z,37.32
2022-08-25T08:14:55.336Z,37.23
2022-08-25T08:17:22.452Z,37.03
2022-08-25T08:19:49.576Z,37.17
2022-08-25T08:22:16.576Z,37.17
2022-08-25T08:24:54.438Z,37.03
2022-08-25T08:27:23.989Z,36.96
2022-08-25T08:29:51.016Z,36.98
2022-08-25T08:32:18.583Z,36.47
2022-08-25T08:34:47.099Z,37.42
2022-08-25T08:37:18.745Z,37.30
2022-08-25T08:39:49.092Z,36.90
2022-08-25T08:42:37.723Z,36.73
2022-08-25T08:45:11.519Z,36.50
2022-08-25T08:48:10.859Z,36.99
2022-08-25T08:51:13.201Z,36.44
2022-08-25T08:53:55.152Z,37.30
2022-08-25T08:56:30.974Z,37.04
2022-08-25T08:59:06.252Z,36.22
2022-08-25T09:01:42.644Z,37.10
2022-08-25T09:04:16.539Z,36.88
2022-08-25T09:06:49.414Z,36.91
2022-08-25T09:09:30.572Z,36.24
2022-08-25T09:12:27.802Z,37.04
2022-08-25T09:15:52.663Z,36.23
2022-08-25T09:18:37.841Z,36.72
2022-08-25T09:21:07.956Z,36.64
2022-08-25T09:23:42.694Z,36.03
2022-08-25T09:26:22.227Z,36.12
2022-08-25T09:29:06.183Z,36.71
2022-08-25T09:31:38.841Z,35.98
2022-08-25T09:34:12.450Z,36.05
2022-08-25T09:36:39.615Z,35.81
2022-08-25T09:39:07.805Z,36.62
2022-08-25T09:41:59.363Z,36.27
2022-08-25T09:44:43.528Z,36.21
2022-08-25T09:47:23.693Z,35.89
2022-08-25T09:50:00.266Z,36.25
2022-08-25T09:52:41.476Z,36.07
2022-08-25T09:55:08.733Z,35.68
2022-08-25T09:57:43.101Z,35.93
2022-08-25T10:00:24.209Z,35.65
2022-08-25T10:03:18.405Z,36.10
2022-08-25T10:06:14.971Z,36.10
2022-08-25T10:08:44.934Z,36.15
2022-08-25T10:11:29.140Z,35.51
2022-08-25T10:14:05.338Z,35.94
2022-08-25T10:16:36.500Z,35.65
2022-08-25T10:19:27.341Z,35.74
2022-08-25T10:22:31.813Z,35.68
2022-08-25T10:25:00.134Z,35.63
2022-08-25T10:27:48.581Z,35.91
2022-08-25T10:30:19.192Z,35.91
2022-08-25T10:32:58.082Z,35.75
2022-08-25T10:35:35.058Z,35.77
2022-08-25T10:38:21.637Z,35.94
2022-08-25T10:41:13.658Z,35.79
2022-08-25T10:43:44.513Z,35.37
2022-08-25T10:46:18.768Z,35.35
2022-08-25T10:49:18.533Z,35.31
2022-08-25T10:51:54.427Z,35.12
2022-08-25T10:54:50.440Z,34.94
2022-08-25T10:57:46.889Z,35.28
2022-08-25T11:00:25.842Z,35.32
2022-08-25T11:03:11.888Z,35.27
2022-08-25T11:06:06.651Z,34.84
2022-08-25T11:08:45.066Z,35.57
2022-08-25T11:11:21.850Z,35.40
2022-08-25T11:13:57.573Z,35.15
2022-08-25T11:16:34.093Z,34.83
2022-08-25T11:19:15.780Z,34.74
2022-08-25T11:21:46.729Z,35.01
2022-08-25T11:24:45.536Z,34.62
2022-08-25T11:27:22.849Z,34.81
2022-08-25T11:30:00.152Z,34.60
2022-08-25T11:32:27.829Z,34.89
2022-08-25T11:34:56.024Z,34.55
2022-08-25T11:37:29.516Z,34.68
2022-08-25T11:40:06.390Z,34.61
2022-08-25T11:43:09.224Z,34.31
2022-08-25T11:46:01.028Z,34.80
2022-08-25T11:48:44.860Z,34.39
2022-08-25T11:51:33.748Z,34.70
2022-08-25T11:54:28.320Z,34.37
2022-08-25T11:56:55.401Z,34.31
2022-08-25T11:59:50.421Z,34.71
2022-08-25T12:02:35.610Z,34.20
2022-08-25T12:05:28.011Z,34.56
2022-08-25T12:08:16.588Z,34.36
2022-08-25T12:10:58.999Z,34.23
2022-08-25T12:13:49.642Z,34.10
2022-08-25T12:16:36.106Z,34.16
2022-08-25T12:19:49.233Z,33.91
2022-08-25T12:22:16.224Z,34.17
2022-08-25T12:24:47.597Z,34.13
2022-08-25T12:27:19.444Z,34.15
2022-08-25T12:30:01.049Z,34.25
2022-08-25T12:32:48.756Z,34.14
2022-08-25T12:35:20.009Z,34.06
2022-08-25T12:38:17.501Z,34.01
2022-08-25T12:40:45.320Z,33.88
2022-08-25T12:43:33.304Z,34.03
2022-08-25T12:46:19.926Z,33.70
2022-08-25T12:49:15.756Z,33.40
2022-08-25T12:51:42.650Z,33.98
2022-08-25T12:54:40.535Z,33.79
2022-08-25T12:57:44.944Z,33.42
2022-08-25T13:03:01.898Z,33.31
2022-08-25T13:05:42.261Z,33.42
2022-08-25T13:08:46.921Z,33.22
2022-08-25T13:11:20.622Z,33.40
2022-08-25T13:14:05.694Z,33.49
2022-08-25T13:16:33.907Z,33.26
2022-08-25T13:19:05.441Z,33.28
2022-08-25T13:21:40.736Z,32.92
2022-08-25T13:24:17.186Z,33.40
2022-08-25T13:26:48.385Z,33.17
2022-08-25T13:29:20.865Z,33.46
2022-08-25T13:32:12.796Z,33.00
2022-08-25T13:34:43.462Z,33.26
2022-08-25T13:37:30.554Z,33.39
2022-08-25T13:40:12.079Z,32.91
2022-08-25T13:42:42.515Z,33.12
2022-08-25T13:45:16.577Z,33.26
2022-08-25T13:47:45.827Z,32.95
2022-08-25T13:50:31.649Z,33.10
2022-08-25T13:53:12.856Z,32.44
2022-08-25T13:55:51.190Z,32.71
2022-08-25T13:58:24.868Z,33.12
2022-08-25T14:01:48.486Z,33.02
2022-08-25T14:04:27.870Z,32.81
2022-08-25T14:07:19.260Z,32.91
2022-08-25T14:09:49.215Z,32.22
2022-08-25T14:12:33.764Z,32.47
2022-08-25T14:15:04.674Z,32.54
2022-08-25T14:17:39.873Z,32.37
2022-08-25T14:20:19.206Z,32.52
2022-08-25T14:22:46.489Z,32.40
2022-08-25T14:25:13.530Z,32.45
2022-08-25T14:28:06.488Z,32.05
2022-08-25T14:30:34.915Z,32.26
2022-08-25T14:33:04.034Z,32.29
2022-08-25T14:35:31.822Z,32.19
2022-08-25T14:37:59.158Z,32.09
2022-08-25T14:40:28.080Z,32.37
2022-08-25T14:42:57.825Z,32.12
2022-08-25T14:45:24.852Z,32.00
2022-08-25T14:47:51.869Z,31.95
2022-08-25T14:50:20.839Z,32.04
2022-08-25T14:52:51.764Z,32.16
2022-08-25T14:55:31.568Z,32.05
2022-08-25T14:57:59.924Z,31.75
2022-08-25T15:00:26.866Z,31.53
2022-08-25T15:02:55.216Z,31.81
2022-08-25T15:05:28.451Z,31.74
2022-08-25T15:08:14.937Z,31.61
2022-08-25T15:10:43.487Z,31.67
2022-08-25T15:13:10.796Z,31.58
2022-08-25T15:15:52.263Z,31.25
2022-08-25T15:18:21.966Z,31.58
2022-08-25T15:20:50.353Z,31.34
2022-08-25T15:23:19.391Z,31.53
2022-08-25T15:25:49.018Z,31.41
2022-08-25T15:28:22.204Z,31.24
2022-08-25T15:30:50.521Z,31.38
2022-08-25T15:33:18.285Z,31.53
2022-08-25T15:35:46.293Z,31.47
2022-08-25T15:38:13.239Z,31.30
2022-08-25T15:40:40.501Z,31.43
2022-08-25T15:43:07.476Z,31.15
2022-08-25T15:45:36.296Z,31.26
2022-08-25T15:48:09.474Z,30.95
2022-08-25T15:50:38.647Z,31.33
2022-08-25T15:53:08.252Z,31.13
2022-08-25T15:55:40.874Z,30.84
2022-08-25T15:58:08.750Z,31.13
2022-08-25T16:00:37.722Z,30.93
2022-08-25T16:03:08.086Z,30.88
2022-08-25T16:05:41.335Z,30.96
2022-08-25T16:08:19.772Z,31.07
2022-08-25T16:10:47.090Z,30.85
2022-08-25T16:13:14.055Z,30.88
2022-08-25T16:15:41.324Z,31.04
2022-08-25T16:18:08.245Z,30.79
2022-08-25T16:20:36.320Z,30.77
2022-08-25T16:23:03.924Z,30.74
2022-08-25T16:25:32.381Z,30.84
2022-08-25T16:27:59.392Z,30.80
2022-08-25T16:30:26.464Z,30.75
2022-08-25T16:32:54.012Z,30.55
2022-08-25T16:35:21.110Z,30.67
2022-08-25T16:37:49.594Z,30.49
2022-08-25T16:40:18.910Z,30.70
2022-08-25T16:42:47.035Z,30.60
2022-08-25T16:45:13.995Z,30.76
2022-08-25T16:47:42.549Z,30.64
2022-08-25T16:50:10.950Z,30.67
2022-08-25T16:52:58.168Z,30.25
2022-08-25T16:55:28.565Z,30.36
2022-08-25T16:58:06.537Z,30.67
2022-08-25T17:00:36.526Z,30.26
2022-08-25T17:03:05.821Z,30.37
2022-08-25T17:05:39.192Z,30.80
2022-08-25T17:08:24.653Z,30.62
2022-08-25T17:10:52.631Z,30.67
2022-08-25T17:13:19.910Z,30.66
2022-08-25T17:15:49.164Z,30.40
2022-08-25T17:18:19.516Z,30.60
2022-08-25T17:20:48.667Z,30.25
2022-08-25T17:23:18.260Z,30.47
2022-08-25T17:25:49.875Z,30.43
2022-08-25T17:28:16.811Z,30.60
2022-08-25T17:30:44.638Z,30.48
2022-08-25T17:33:14.213Z,30.44
2022-08-25T17:35:47.113Z,30.50
2022-08-25T17:38:19.906Z,30.45
2022-08-25T17:40:48.163Z,30.51
2022-08-25T17:43:15.691Z,30.35
2022-08-25T17:45:42.644Z,30.41
2022-08-25T17:48:10.073Z,30.18
2022-08-25T17:50:39.157Z,30.77
2022-08-25T17:53:07.494Z,30.19
2022-08-25T17:55:37.053Z,30.46
2022-08-25T17:58:04.548Z,30.39
2022-08-25T18:00:32.863Z,30.51
2022-08-25T18:03:00.473Z,30.36
2022-08-25T18:05:27.718Z,30.57
2022-08-25T18:07:54.841Z,30.53
2022-08-25T18:10:22.089Z,30.70
2022-08-25T18:12:49.718Z,30.61
2022-08-25T18:15:17.324Z,30.77
2022-08-25T18:17:44.310Z,30.93
2022-08-25T18:20:15.331Z,31.10
2022-08-25T18:22:44.064Z,31.05
2022-08-25T18:25:13.954Z,30.99
2022-08-25T18:27:41.638Z,31.09
2022-08-25T18:30:09.594Z,30.98
2022-08-25T18:32:36.724Z,31.33
2022-08-25T18:35:05.880Z,31.47
2022-08-25T18:37:51.223Z,31.09
2022-08-25T18:40:24.234Z,31.25
2022-08-25T18:42:57.809Z,31.67
2022-08-25T18:45:27.814Z,31.24
2022-08-25T18:47:58.126Z,31.68
2022-08-25T18:50:30.102Z,31.74
2022-08-25T18:52:57.981Z,31.60
2022-08-25T18:55:25.559Z,31.74
2022-08-25T18:57:53.144Z,31.16
2022-08-25T19:00:22.906Z,31.71
2022-08-25T19:02:52.587Z,31.47
2022-08-25T19:05:32.590Z,31.49
2022-08-25T19:08:02.916Z,31.20
2022-08-25T19:10:30.437Z,31.61
2022-08-25T19:12:58.197Z,32.09
2022-08-25T19:15:30.086Z,32.00
2022-08-25T19:17:58.828Z,31.34
2022-08-25T19:20:26.663Z,31.98
2022-08-25T19:22:53.635Z,32.12
2022-08-25T19:25:22.506Z,32.00
2022-08-25T19:27:52.161Z,32.13
2022-08-25T19:30:23.051Z,31.91
2022-08-25T19:32:51.242Z,31.55
2022-08-25T19:35:22.321Z,31.71
2022-08-25T19:37:51.837Z,32.07
2022-08-25T19:40:20.814Z,31.62
2022-08-25T19:42:54.677Z,31.80
2022-08-25T19:45:23.700Z,32.38
2022-08-25T19:47:51.393Z,32.05
2022-08-25T19:50:21.818Z,32.24
2022-08-25T19:52:49.797Z,32.54
2022-08-25T19:55:17.374Z,32.58
2022-08-25T19:57:44.515Z,32.57
2022-08-25T20:00:19.033Z,32.47
2022-08-25T20:02:47.228Z,32.49
2022-08-25T20:05:17.014Z,32.70
2022-08-25T20:07:53.134Z,32.19
2022-08-25T20:10:22.909Z,32.01
2022-08-25T20:12:51.733Z,32.23
2022-08-25T20:15:20.231Z,32.42
2022-08-25T20:17:47.565Z,32.57
2022-08-25T20:20:18.791Z,32.89
2022-08-25T20:22:46.549Z,32.68
2022-08-25T20:25:25.272Z,32.74
2022-08-25T20:27:55.708Z,32.18
2022-08-25T20:30:26.008Z,33.02
2022-08-25T20:32:56.663Z,32.33
2022-08-25T20:35:27.890Z,33.08
2022-08-25T20:38:05.351Z,32.88
2022-08-25T20:40:32.744Z,33.32
2022-08-25T20:43:04.394Z,33.17
2022-08-25T20:45:31.966Z,33.12
2022-08-25T20:48:01.849Z,32.52
2022-08-25T20:50:32.315Z,33.10
2022-08-25T20:53:10.298Z,32.61
2022-08-25T20:55:50.341Z,32.66
2022-08-25T20:58:17.512Z,33.17
2022-08-25T21:01:03.703Z,33.13
2022-08-25T21:03:35.806Z,33.38
2022-08-25T21:06:14.536Z,33.33
2022-08-25T21:08:47.394Z,33.27
2022-08-25T21:11:18.578Z,33.24
2022-08-25T21:13:51.232Z,33.40
2022-08-25T21:16:20.362Z,32.86
2022-08-25T21:18:49.856Z,33.63
2022-08-25T21:21:17.438Z,33.21
2022-08-25T21:24:04.341Z,33.67
2022-08-25T21:26:34.792Z,33.83
2022-08-25T21:29:21.929Z,33.06
2022-08-25T21:31:52.660Z,33.97
2022-08-25T21:34:21.955Z,33.56
2022-08-25T21:36:49.385Z,33.77
2022-08-25T21:39:24.327Z,33.63
2022-08-25T21:42:13.789Z,33.54
2022-08-25T21:44:51.352Z,34.00
2022-08-25T21:47:21.317Z,34.24
2022-08-25T21:49:58.724Z,34.20
2022-08-25T21:52:26.289Z,33.42
2022-08-25T21:54:58.759Z,33.63
2022-08-25T21:57:33.588Z,33.50
2022-08-25T22:00:15.049Z,33.94
2022-08-25T22:02:48.259Z,34.13
2022-08-25T22:05:18.552Z,34.14
2022-08-25T22:07:58.771Z,34.52
2022-08-25T22:10:26.414Z,34.02
2022-08-25T22:12:54.489Z,34.34
2022-08-25T22:15:24.474Z,33.95
2022-08-25T22:17:52.051Z,34.39
2022-08-25T22:20:30.097Z,34.59
2022-08-25T22:23:00.068Z,34.40
2022-08-25T22:25:27.451Z,34.51
2022-08-25T22:27:56.695Z,33.96
2022-08-25T22:30:29.337Z,34.85
2022-08-25T22:33:01.795Z,34.25
2022-08-25T22:35:33.025Z,34.87
2022-08-25T22:38:07.395Z,34.96
2022-08-25T22:40:43.480Z,35.08
2022-08-25T22:46:01.229Z,35.13
2022-08-25T22:48:32.121Z,35.23
2022-08-25T22:51:10.666Z,35.24
2022-08-25T22:53:39.616Z,34.38
2022-08-25T22:56:07.901Z,34.65
2022-08-25T22:58:43.646Z,34.63
2022-08-25T23:01:23.116Z,34.57
2022-08-25T23:03:50.422Z,34.36
2022-08-25T23:06:25.055Z,35.36
2022-08-25T23:08:59.962Z,35.07
2022-08-25T23:11:31.811Z,34.60
2022-08-25T23:14:02.521Z,34.69
2022-08-25T23:16:33.164Z,35.24
2022-08-25T23:19:03.184Z,34.95
2022-08-25T23:21:53.126Z,34.77
2022-08-25T23:24:30.157Z,35.29
2022-08-25T23:27:05.159Z,35.14
2022-08-25T23:29:39.825Z,34.91
2022-08-25T23:32:09.068Z,35.11
2022-08-25T23:34:58.534Z,35.15
2022-08-25T23:37:31.308Z,34.86
2022-08-25T23:40:01.019Z,35.76
2022-08-25T23:42:31.732Z,35.00
2022-08-25T23:45:03.540Z,35.07
2022-08-25T23:47:35.672Z,35.29
2022-08-25T23:50:08.182Z,35.66
2022-08-25T23:52:41.873Z,35.93
2022-08-25T23:55:11.252Z,35.73
2022-08-25T23:57:40.862Z,35.63
